»·PEaware :: N253AW KGCN-KPSP

N253AW :: KGCN-KPSP

FLIGHT INFORMATION

Flight Status: Arrived
Operator: Privately registered:
United States
More flights under this callsign
Pilot: Dean S. (16265)
Aircraft: CESSNA 182 SKYLANE
(C182)
More flights by this aircraft type
Origin: KGCN Grand Canyon Natl Park
United States
Destination: KPSP Palm Springs Intl
United States
More flights between these airports :: More routes between these airports
Route: YUCCA
File this flight plan on PilotEdge
Remarks:
Altitude:
(Current/Filed)
12,500ft
Speed:
(Current/Filed)
130kts
Departed: 30-Sep-17 12:56 PM
Arrived: 30-Sep-17 02:46 PM
Distance/Time
Traveled:
249nm/1:50
Distance/Time
To Go:
Arrived

Flight Plot

Page will automatically refresh every two minutes.

Flight plan parsing failed; only flown route is shown


Map Options




Map Legend


Flown Route
Filed Route
Departure Airport
Arrival Airport
Navaid (VOR, NDB)
Fix

Horizontal Profiles

Position Reports

Time Latitude Longitude Heading Altitude Ground
Speed
30-Sep-17 12:46 35.953270 -112.142413 130 6612ft 0kts
30-Sep-17 12:47 35.953270 -112.142412 130 6612ft 0kts
30-Sep-17 12:48 35.953270 -112.142412 130 6612ft 0kts
30-Sep-17 12:49 35.953184 -112.142511 291 6612ft 0kts
30-Sep-17 12:50 35.953184 -112.142512 291 6612ft 0kts
30-Sep-17 12:51 35.955529 -112.141331 40 6612ft 20kts
30-Sep-17 12:52 35.958531 -112.138307 41 6612ft 15kts
30-Sep-17 12:53 35.961089 -112.136013 321 6612ft 8kts
30-Sep-17 12:54 35.961332 -112.136626 274 6612ft 0kts
30-Sep-17 12:55 35.961332 -112.136626 274 6612ft 0kts
30-Sep-17 12:56 35.961332 -112.136627 274 6612ft 0kts
30-Sep-17 12:57 35.961332 -112.136627 274 6612ft 0kts
30-Sep-17 12:58 35.961332 -112.136627 274 6612ft 0kts
30-Sep-17 12:59 35.960782 -112.138035 219 6612ft 0kts
30-Sep-17 13:00 35.950283 -112.149240 221 6961ft 87kts
30-Sep-17 13:01 35.933171 -112.173080 239 8071ft 95kts
30-Sep-17 13:02 35.920701 -112.206313 249 9053ft 119kts
30-Sep-17 13:03 35.925946 -112.247978 300 9998ft 134kts
30-Sep-17 13:04 35.942615 -112.290306 268 10914ft 141kts
30-Sep-17 13:05 35.926106 -112.334428 234 11827ft 144kts
30-Sep-17 13:06 35.902198 -112.375798 234 12492ft 158kts
30-Sep-17 13:07 35.874667 -112.421962 229 12495ft 171kts
30-Sep-17 13:08 35.843813 -112.467187 232 12489ft 172kts
30-Sep-17 13:09 35.815489 -112.514624 242 12486ft 172kts
30-Sep-17 13:10 35.795553 -112.567499 245 12480ft 166kts
30-Sep-17 13:11 35.776467 -112.619220 245 12477ft 165kts
30-Sep-17 13:12 35.757406 -112.670862 245 12473ft 165kts
30-Sep-17 13:13 35.738282 -112.722663 245 12468ft 165kts
30-Sep-17 13:14 35.719215 -112.774295 245 12463ft 166kts
30-Sep-17 13:15 35.700151 -112.825907 245 12457ft 166kts
30-Sep-17 13:16 35.681018 -112.877695 245 12451ft 166kts
30-Sep-17 13:17 35.661938 -112.929324 245 12441ft 166kts
30-Sep-17 13:18 35.642781 -112.981152 245 12428ft 166kts
30-Sep-17 13:19 35.623692 -113.032783 245 12420ft 166kts
30-Sep-17 13:20 35.604613 -113.084372 245 12413ft 166kts
30-Sep-17 13:21 35.585465 -113.136140 245 12404ft 166kts
30-Sep-17 13:22 35.566375 -113.187734 245 12396ft 166kts
30-Sep-17 13:23 35.547221 -113.239492 245 12387ft 166kts
30-Sep-17 13:24 35.528132 -113.291060 245 12378ft 166kts
30-Sep-17 13:25 35.509034 -113.342640 245 12364ft 166kts
30-Sep-17 13:26 35.489863 -113.394407 245 12352ft 166kts
30-Sep-17 13:27 35.470766 -113.445962 245 12344ft 166kts
30-Sep-17 13:28 35.451675 -113.497487 245 12337ft 166kts
30-Sep-17 13:29 35.432523 -113.549164 245 12330ft 166kts
30-Sep-17 13:30 35.413434 -113.600659 245 12324ft 166kts
30-Sep-17 13:31 35.394273 -113.652335 245 12315ft 166kts
30-Sep-17 13:32 35.375188 -113.703796 245 12313ft 166kts
30-Sep-17 13:33 35.356107 -113.755233 245 12311ft 166kts
30-Sep-17 13:34 35.336967 -113.806819 245 12311ft 166kts
30-Sep-17 13:35 35.317882 -113.858241 245 12309ft 166kts
30-Sep-17 13:36 35.298806 -113.909629 245 12310ft 166kts
30-Sep-17 13:37 35.279662 -113.961187 245 12309ft 166kts
30-Sep-17 13:38 35.260579 -114.012569 245 12307ft 166kts
30-Sep-17 13:39 35.241412 -114.064166 245 12299ft 166kts
30-Sep-17 13:40 35.222290 -114.115627 245 12284ft 166kts
30-Sep-17 13:41 35.203140 -114.167152 245 12261ft 166kts
30-Sep-17 13:42 35.183907 -114.218892 245 12231ft 167kts
30-Sep-17 13:43 35.164722 -114.270487 245 12198ft 167kts
30-Sep-17 13:44 35.145466 -114.322259 245 12163ft 167kts
30-Sep-17 13:45 35.126284 -114.373822 245 12138ft 166kts
30-Sep-17 13:46 35.107065 -114.425473 245 12121ft 166kts
30-Sep-17 13:47 35.087931 -114.476884 245 12112ft 166kts
30-Sep-17 13:48 35.068750 -114.528407 245 12109ft 166kts
30-Sep-17 13:49 35.049641 -114.579727 245 12107ft 166kts
30-Sep-17 13:50 35.030532 -114.631034 245 12107ft 166kts
30-Sep-17 13:51 35.011363 -114.682489 245 12110ft 166kts
30-Sep-17 13:52 34.992264 -114.733744 245 12115ft 166kts
30-Sep-17 13:53 34.973105 -114.785150 245 12119ft 166kts
30-Sep-17 13:54 34.954000 -114.836397 245 12122ft 166kts
30-Sep-17 13:55 34.934893 -114.887638 245 12125ft 166kts
30-Sep-17 13:56 34.915713 -114.939039 244 12127ft 166kts
30-Sep-17 13:57 34.879060 -114.969117 193 12131ft 166kts
30-Sep-17 13:58 34.834130 -114.982377 193 12131ft 166kts
30-Sep-17 13:59 34.789042 -114.995616 193 12133ft 166kts
30-Sep-17 14:00 34.744120 -115.008799 193 12142ft 166kts
30-Sep-17 14:01 34.699050 -115.022018 193 12143ft 166kts
30-Sep-17 14:02 34.654091 -115.035198 193 12143ft 166kts
30-Sep-17 14:03 34.609128 -115.048371 193 12143ft 166kts
30-Sep-17 14:04 34.564020 -115.061580 193 12146ft 166kts
30-Sep-17 14:05 34.519080 -115.074732 193 12151ft 166kts
30-Sep-17 14:06 34.474123 -115.087882 193 12153ft 166kts
30-Sep-17 14:07 34.430372 -115.103962 232 12154ft 166kts
30-Sep-17 14:08 34.418036 -115.157543 257 12157ft 166kts
30-Sep-17 14:09 34.408049 -115.212390 257 12162ft 166kts
30-Sep-17 14:10 34.398101 -115.267027 257 12168ft 166kts
30-Sep-17 14:11 34.388152 -115.321663 257 12175ft 166kts
30-Sep-17 14:12 34.378170 -115.376473 257 12182ft 166kts
30-Sep-17 14:13 34.368220 -115.431099 257 12189ft 166kts
30-Sep-17 14:14 34.358268 -115.485727 257 12197ft 166kts
30-Sep-17 14:15 34.348287 -115.540511 257 12205ft 166kts
30-Sep-17 14:16 34.321264 -115.584074 211 12212ft 166kts
30-Sep-17 14:17 34.279663 -115.602085 193 12197ft 145kts
30-Sep-17 14:18 34.249047 -115.630553 236 11879ft 151kts
30-Sep-17 14:19 34.223595 -115.672103 229 11186ft 155kts
30-Sep-17 14:20 34.195550 -115.711551 225 10487ft 153kts
30-Sep-17 14:21 34.171383 -115.753647 239 9791ft 152kts
30-Sep-17 14:22 34.150900 -115.798369 241 9092ft 151kts
30-Sep-17 14:23 34.143896 -115.847348 270 8399ft 150kts
30-Sep-17 14:24 34.144396 -115.897426 271 7703ft 148kts
30-Sep-17 14:25 34.144706 -115.947294 270 7004ft 147kts
30-Sep-17 14:26 34.145048 -115.996604 271 6329ft 145kts
30-Sep-17 14:27 34.144489 -116.042485 264 6224ft 129kts
30-Sep-17 14:28 34.142770 -116.085104 266 6230ft 126kts
30-Sep-17 14:29 34.142112 -116.127373 270 6235ft 126kts
30-Sep-17 14:30 34.144414 -116.169720 275 6236ft 126kts
30-Sep-17 14:31 34.148172 -116.211754 276 6240ft 126kts
30-Sep-17 14:32 34.152623 -116.253882 277 6241ft 126kts
30-Sep-17 14:33 34.156861 -116.295894 270 6242ft 126kts
30-Sep-17 14:34 34.149098 -116.336059 233 6242ft 123kts
30-Sep-17 14:35 34.126158 -116.365855 222 6238ft 120kts
30-Sep-17 14:36 34.109886 -116.399947 247 6234ft 119kts
30-Sep-17 14:37 34.097154 -116.436900 247 6233ft 119kts
30-Sep-17 14:38 34.089354 -116.477466 261 5813ft 133kts
30-Sep-17 14:39 34.077420 -116.518279 195 5138ft 136kts
30-Sep-17 14:40 34.041433 -116.505775 160 4379ft 138kts
30-Sep-17 14:41 34.004446 -116.505298 190 3611ft 137kts
30-Sep-17 14:42 33.965438 -116.510685 184 2397ft 142kts
30-Sep-17 14:43 33.928342 -116.512496 178 1844ft 103kts
30-Sep-17 14:44 33.901462 -116.510707 174 1663ft 95kts
30-Sep-17 14:45 33.875843 -116.506866 171 1402ft 85kts
30-Sep-17 14:46 33.852328 -116.502944 159 1034ft 85kts
30-Sep-17 14:47 33.832142 -116.490498 148 771ft 81kts
30-Sep-17 14:48 33.813518 -116.478132 193 707ft 65kts
30-Sep-17 14:49 33.819120 -116.496492 329 583ft 81kts
30-Sep-17 14:50 33.831343 -116.505705 64 480ft 0kts
30-Sep-17 14:51 33.831231 -116.504297 133 480ft 27kts
30-Sep-17 14:52 33.826626 -116.500483 57 480ft 0kts
30-Sep-17 14:53 33.826626 -116.500483 57 480ft 0kts
30-Sep-17 14:54 33.826626 -116.500482 57 480ft 0kts
30-Sep-17 14:55 33.826627 -116.500482 57 480ft 0kts
30-Sep-17 14:56 33.826627 -116.500482 57 480ft 0kts
30-Sep-17 14:57 33.826627 -116.500481 57 480ft 0kts
30-Sep-17 14:58 33.826627 -116.500481 57 480ft 0kts
30-Sep-17 14:59 33.826627 -116.500481 57 480ft 0kts
30-Sep-17 15:00 33.826627 -116.500480 57 480ft 0kts
30-Sep-17 15:01 33.826635 -116.500464 62 480ft 2kts
30-Sep-17 15:02 33.826524 -116.500441 256 480ft 0kts

Navigation Log

Ident Type
Flight plan parsing failed, navigation log unavailable